createdAt,value
2022-11-02T00:00:02.172Z,9.36
2022-11-02T00:00:12.680Z,9.35
2022-11-02T00:00:23.232Z,9.35
2022-11-02T00:00:33.703Z,9.35
2022-11-02T00:00:44.212Z,9.36
2022-11-02T00:00:54.715Z,9.35
2022-11-02T00:01:05.224Z,9.36
2022-11-02T00:01:15.792Z,9.36
2022-11-02T00:01:26.291Z,9.38
2022-11-02T00:01:36.857Z,9.38
2022-11-02T00:01:47.325Z,9.36
2022-11-02T00:01:57.943Z,9.38
2022-11-02T00:02:08.343Z,9.36
2022-11-02T00:02:18.880Z,9.39
2022-11-02T00:02:29.351Z,9.38
2022-11-02T00:02:39.930Z,9.38
2022-11-02T00:02:50.410Z,9.39
2022-11-02T00:03:00.921Z,9.39
2022-11-02T00:03:11.450Z,9.40
2022-11-02T00:03:21.841Z,9.39
2022-11-02T00:03:32.351Z,9.42
2022-11-02T00:03:42.861Z,9.40
2022-11-02T00:03:53.368Z,9.40
2022-11-02T00:04:03.888Z,9.42
2022-11-02T00:04:14.391Z,9.40
2022-11-02T00:04:24.898Z,9.40
2022-11-02T00:04:35.402Z,9.40
2022-11-02T00:04:45.915Z,9.42
2022-11-02T00:04:56.428Z,9.43
2022-11-02T00:05:06.940Z,9.47
2022-11-02T00:05:17.435Z,9.50
2022-11-02T00:05:27.998Z,9.51
2022-11-02T00:05:38.452Z,9.54
2022-11-02T00:05:48.962Z,9.54
2022-11-02T00:05:59.472Z,9.56
2022-11-02T00:06:09.981Z,9.57
2022-11-02T00:06:20.491Z,9.57
2022-11-02T00:06:30.994Z,9.57
2022-11-02T00:06:41.508Z,9.56
2022-11-02T00:06:52.011Z,9.56
2022-11-02T00:07:02.527Z,9.56
2022-11-02T00:07:13.027Z,9.54
2022-11-02T00:07:23.547Z,9.54
2022-11-02T00:07:34.040Z,9.54
2022-11-02T00:07:44.559Z,9.54
2022-11-02T00:07:55.072Z,9.53
2022-11-02T00:08:05.580Z,9.53
2022-11-02T00:08:16.074Z,9.53
2022-11-02T00:08:26.585Z,9.51
2022-11-02T00:08:37.088Z,9.50
2022-11-02T00:08:47.599Z,9.50
2022-11-02T00:08:58.114Z,9.48
2022-11-02T00:09:08.636Z,9.48
2022-11-02T00:09:19.134Z,9.46
2022-11-02T00:09:29.649Z,9.46
2022-11-02T00:09:40.139Z,9.46
2022-11-02T00:09:50.645Z,9.46
2022-11-02T00:10:01.161Z,9.46
2022-11-02T00:10:11.663Z,9.42
2022-11-02T00:10:22.184Z,9.40
2022-11-02T00:10:32.680Z,9.40
2022-11-02T00:10:43.199Z,9.39
2022-11-02T00:10:53.701Z,9.38
2022-11-02T00:11:04.210Z,9.38
2022-11-02T00:11:14.730Z,9.38
2022-11-02T00:11:25.215Z,9.35
2022-11-02T00:11:35.729Z,9.35
2022-11-02T00:11:46.232Z,9.35
2022-11-02T00:11:56.741Z,9.31
2022-11-02T00:12:07.247Z,9.29
2022-11-02T00:12:17.751Z,9.31
2022-11-02T00:12:28.266Z,9.29
2022-11-02T00:12:38.776Z,9.28
2022-11-02T00:12:49.314Z,9.24
2022-11-02T00:12:59.788Z,9.24
2022-11-02T00:13:10.298Z,9.24
2022-11-02T00:13:20.811Z,9.21
2022-11-02T00:13:31.319Z,9.24
2022-11-02T00:13:41.825Z,9.21
2022-11-02T00:13:52.331Z,9.20
2022-11-02T00:14:02.841Z,9.23
2022-11-02T00:14:13.345Z,9.21
2022-11-02T00:14:23.861Z,9.21
2022-11-02T00:14:34.387Z,9.21
2022-11-02T00:14:44.877Z,9.20
2022-11-02T00:14:55.377Z,9.21
2022-11-02T00:15:05.884Z,9.20
2022-11-02T00:15:16.407Z,9.18
2022-11-02T00:15:26.911Z,9.18
2022-11-02T00:15:37.409Z,9.18
2022-11-02T00:15:47.939Z,9.17
2022-11-02T00:15:58.457Z,9.17
2022-11-02T00:16:08.933Z,9.15
2022-11-02T00:16:19.436Z,9.15
2022-11-02T00:16:29.978Z,9.14
2022-11-02T00:16:40.466Z,9.13
2022-11-02T00:16:50.960Z,9.11
2022-11-02T00:17:01.469Z,9.11
2022-11-02T00:17:11.976Z,9.10
2022-11-02T00:17:22.485Z,9.11
2022-11-02T00:17:32.991Z,9.14
2022-11-02T00:17:43.496Z,9.13
2022-11-02T00:17:54.082Z,9.15
2022-11-02T00:18:15.023Z,9.15
2022-11-02T00:18:25.519Z,9.15
2022-11-02T00:18:36.028Z,9.15
2022-11-02T00:18:46.531Z,9.17
2022-11-02T00:18:57.043Z,9.17
2022-11-02T00:19:07.555Z,9.17
2022-11-02T00:19:18.058Z,9.17
2022-11-02T00:19:28.565Z,9.15
2022-11-02T00:19:39.078Z,9.14
2022-11-02T00:19:49.574Z,9.15
2022-11-02T00:20:00.094Z,9.14
2022-11-02T00:20:10.594Z,9.13
2022-11-02T00:20:21.104Z,9.11
2022-11-02T00:20:31.595Z,9.11
2022-11-02T00:20:42.109Z,9.10
2022-11-02T00:20:52.618Z,9.10
2022-11-02T00:21:03.130Z,9.08
2022-11-02T00:21:13.639Z,9.05
2022-11-02T00:21:24.148Z,9.04
2022-11-02T00:21:34.683Z,9.05
2022-11-02T00:21:45.167Z,9.02
2022-11-02T00:21:55.661Z,9.01
2022-11-02T00:22:06.175Z,9.01
2022-11-02T00:22:16.681Z,9.01
2022-11-02T00:22:27.197Z,8.98
2022-11-02T00:22:37.698Z,8.96
2022-11-02T00:22:48.206Z,8.96
2022-11-02T00:22:58.712Z,8.95
2022-11-02T00:23:09.231Z,8.96
2022-11-02T00:23:19.731Z,8.96
2022-11-02T00:23:30.232Z,8.99
2022-11-02T00:23:40.738Z,8.98
2022-11-02T00:23:51.254Z,8.98
2022-11-02T00:24:01.756Z,8.98
2022-11-02T00:24:12.259Z,8.98
2022-11-02T00:24:22.767Z,8.98
2022-11-02T00:24:33.281Z,9.01
2022-11-02T00:24:43.783Z,9.01
2022-11-02T00:24:54.293Z,9.02
2022-11-02T00:25:04.819Z,9.02
2022-11-02T00:25:15.308Z,9.02
2022-11-02T00:25:25.842Z,9.02
2022-11-02T00:25:36.330Z,9.02
2022-11-02T00:25:46.832Z,9.02
2022-11-02T00:25:58.708Z,9.05
2022-11-02T00:26:07.851Z,9.08
2022-11-02T00:26:18.387Z,9.11
2022-11-02T00:26:28.874Z,9.15
2022-11-02T00:26:39.379Z,9.17
2022-11-02T00:26:49.892Z,9.17
2022-11-02T00:27:00.402Z,9.20
2022-11-02T00:27:10.905Z,9.20
2022-11-02T00:27:21.416Z,9.23
2022-11-02T00:27:31.919Z,9.24
2022-11-02T00:27:42.435Z,9.23
2022-11-02T00:27:52.944Z,9.24
2022-11-02T00:28:03.455Z,9.24
2022-11-02T00:28:13.961Z,9.24
2022-11-02T00:28:24.471Z,9.26
2022-11-02T00:28:34.994Z,9.28
2022-11-02T00:28:45.486Z,9.28
2022-11-02T00:28:55.996Z,9.29
2022-11-02T00:29:06.529Z,9.31
2022-11-02T00:29:17.007Z,9.33
2022-11-02T00:29:31.221Z,9.36
2022-11-02T00:29:39.015Z,9.39
2022-11-02T00:29:48.531Z,9.40
2022-11-02T00:29:59.033Z,9.43
2022-11-02T00:30:09.545Z,9.46
2022-11-02T00:30:20.048Z,9.47
2022-11-02T00:30:30.556Z,9.47
2022-11-02T00:30:41.059Z,9.48
2022-11-02T00:30:51.572Z,9.50
2022-11-02T00:31:02.078Z,9.50
2022-11-02T00:31:12.585Z,9.51
2022-11-02T00:31:23.095Z,9.51
2022-11-02T00:31:33.600Z,9.53
2022-11-02T00:31:44.113Z,9.51
2022-11-02T00:31:54.614Z,9.50
2022-11-02T00:32:05.119Z,9.51
2022-11-02T00:32:15.627Z,9.48
2022-11-02T00:32:26.156Z,9.51
2022-11-02T00:32:36.650Z,9.51
2022-11-02T00:32:47.147Z,9.54
2022-11-02T00:32:57.672Z,9.56
2022-11-02T00:33:08.162Z,9.56
2022-11-02T00:33:18.670Z,9.57
2022-11-02T00:33:29.173Z,9.56
2022-11-02T00:33:39.682Z,9.54
2022-11-02T00:33:50.183Z,9.57
2022-11-02T00:34:00.690Z,9.56
2022-11-02T00:34:11.216Z,9.57
2022-11-02T00:34:21.741Z,9.56
2022-11-02T00:34:32.210Z,9.56
2022-11-02T00:34:42.727Z,9.54
2022-11-02T00:34:53.229Z,9.56
2022-11-02T00:35:03.736Z,9.56
2022-11-02T00:35:14.239Z,9.56
2022-11-02T00:35:24.750Z,9.54
2022-11-02T00:35:35.262Z,9.56
2022-11-02T00:35:45.773Z,9.54
2022-11-02T00:35:56.272Z,9.53
2022-11-02T00:36:06.790Z,9.54
2022-11-02T00:36:17.300Z,9.56
2022-11-02T00:36:27.797Z,9.56
2022-11-02T00:36:38.301Z,9.54
2022-11-02T00:36:54.454Z,9.54
2022-11-02T00:37:00.318Z,9.54
2022-11-02T00:37:09.827Z,9.51
2022-11-02T00:37:20.423Z,9.53
2022-11-02T00:37:30.851Z,9.50
2022-11-02T00:37:41.350Z,9.53
2022-11-02T00:37:51.865Z,9.51
2022-11-02T00:38:02.727Z,9.51
2022-11-02T00:38:12.863Z,9.51
2022-11-02T00:38:23.376Z,9.50
2022-11-02T00:38:33.881Z,9.53
2022-11-02T00:38:44.388Z,9.53
2022-11-02T00:38:54.899Z,9.53
2022-11-02T00:39:05.409Z,9.54
2022-11-02T00:39:15.947Z,9.56
2022-11-02T00:39:26.419Z,9.58
2022-11-02T00:39:36.930Z,9.60
2022-11-02T00:39:47.440Z,9.64
2022-11-02T00:39:57.948Z,9.66
2022-11-02T00:40:08.455Z,9.66
2022-11-02T00:40:18.959Z,9.68
2022-11-02T00:40:29.463Z,9.69
2022-11-02T00:40:39.987Z,9.65
2022-11-02T00:40:50.481Z,9.69
2022-11-02T00:41:01.001Z,9.69
2022-11-02T00:41:11.497Z,9.68
2022-11-02T00:41:22.037Z,9.69
2022-11-02T00:41:32.518Z,9.69
2022-11-02T00:41:43.016Z,9.71
2022-11-02T00:41:53.519Z,9.72
2022-11-02T00:42:04.032Z,9.72
2022-11-02T00:42:14.532Z,9.74
2022-11-02T00:42:25.048Z,9.74
2022-11-02T00:42:35.550Z,9.75
2022-11-02T00:42:46.061Z,9.78
2022-11-02T00:42:56.560Z,9.76
2022-11-02T00:43:07.073Z,9.78
2022-11-02T00:43:17.577Z,9.76
2022-11-02T00:43:28.092Z,9.75
2022-11-02T00:43:38.626Z,9.75
2022-11-02T00:43:49.105Z,9.75
2022-11-02T00:43:59.611Z,9.75
2022-11-02T00:44:10.121Z,9.76
2022-11-02T00:44:20.627Z,9.75
2022-11-02T00:44:31.133Z,9.76
2022-11-02T00:44:41.658Z,9.78
2022-11-02T00:44:52.147Z,9.78
2022-11-02T00:45:02.663Z,9.79
2022-11-02T00:45:13.163Z,9.76
2022-11-02T00:45:23.662Z,9.78
2022-11-02T00:45:34.178Z,9.79
2022-11-02T00:45:44.680Z,9.83
2022-11-02T00:45:55.201Z,9.86
2022-11-02T00:46:05.701Z,9.87
2022-11-02T00:46:16.211Z,9.90
2022-11-02T00:46:26.713Z,9.90
2022-11-02T00:46:37.227Z,9.89
2022-11-02T00:46:47.740Z,9.90
2022-11-02T00:46:58.248Z,9.90
2022-11-02T00:47:08.754Z,9.90
2022-11-02T00:47:19.272Z,9.90
2022-11-02T00:47:29.766Z,9.89
2022-11-02T00:47:40.277Z,9.90
2022-11-02T00:47:50.782Z,9.89
2022-11-02T00:48:01.642Z,9.89
2022-11-02T00:48:11.815Z,9.87
2022-11-02T00:48:22.316Z,9.89
2022-11-02T00:48:32.819Z,9.86
2022-11-02T00:48:43.325Z,9.86
2022-11-02T00:48:53.871Z,9.86
2022-11-02T00:49:04.346Z,9.86
2022-11-02T00:49:14.852Z,9.84
2022-11-02T00:49:25.362Z,9.84
2022-11-02T00:49:35.865Z,9.86
2022-11-02T00:49:46.384Z,9.84
2022-11-02T00:49:56.880Z,9.83
2022-11-02T00:50:07.439Z,9.83
2022-11-02T00:50:17.896Z,9.83
2022-11-02T00:50:28.401Z,9.84
2022-11-02T00:50:38.909Z,9.84
2022-11-02T00:50:49.451Z,9.84
2022-11-02T00:50:59.923Z,9.86
2022-11-02T00:51:10.447Z,9.89
2022-11-02T00:51:20.952Z,9.89
2022-11-02T00:51:31.454Z,9.90
2022-11-02T00:51:41.973Z,9.91
2022-11-02T00:51:52.476Z,9.91
2022-11-02T00:52:02.979Z,9.90
2022-11-02T00:52:13.494Z,9.90
2022-11-02T00:52:23.992Z,9.91
2022-11-02T00:52:34.509Z,9.91
2022-11-02T00:52:45.025Z,9.91
2022-11-02T00:52:55.531Z,9.91
2022-11-02T00:53:06.070Z,9.91
2022-11-02T00:53:16.554Z,9.91
2022-11-02T00:53:27.068Z,9.93
2022-11-02T00:53:37.571Z,9.93
2022-11-02T00:53:48.088Z,9.91
2022-11-02T00:53:58.599Z,9.91
2022-11-02T00:54:09.105Z,9.90
2022-11-02T00:54:23.220Z,9.91
2022-11-02T00:54:30.115Z,9.94
2022-11-02T00:54:40.632Z,9.93
2022-11-02T00:54:51.135Z,9.96
2022-11-02T00:55:01.649Z,9.96
2022-11-02T00:55:12.160Z,9.96
2022-11-02T00:55:22.712Z,9.93
2022-11-02T00:55:33.166Z,9.93
2022-11-02T00:55:43.677Z,9.96
2022-11-02T00:55:54.230Z,9.93
2022-11-02T00:56:04.692Z,9.94
2022-11-02T00:56:15.202Z,9.91
2022-11-02T00:56:25.768Z,9.94
2022-11-02T00:56:36.220Z,9.93
2022-11-02T00:56:46.725Z,9.93
2022-11-02T00:56:57.255Z,9.93
2022-11-02T00:57:07.746Z,9.90
2022-11-02T00:57:18.251Z,9.90
2022-11-02T00:57:28.764Z,9.89
2022-11-02T00:57:39.267Z,9.89
2022-11-02T00:57:49.789Z,9.87
2022-11-02T00:58:00.646Z,9.84
2022-11-02T00:58:10.800Z,9.84
2022-11-02T00:58:21.307Z,9.84
2022-11-02T00:58:31.815Z,9.81
2022-11-02T00:58:42.317Z,9.78
2022-11-02T00:58:52.836Z,9.78
2022-11-02T00:59:03.342Z,9.76
2022-11-02T00:59:13.841Z,9.74
2022-11-02T00:59:24.365Z,9.76
2022-11-02T00:59:34.888Z,9.75
2022-11-02T00:59:45.369Z,9.74
2022-11-02T00:59:55.880Z,9.72
2022-11-02T01:00:06.398Z,9.72
2022-11-02T01:00:16.897Z,9.74
2022-11-02T01:00:27.415Z,9.72
2022-11-02T01:00:37.919Z,9.71
2022-11-02T01:00:48.425Z,9.72
2022-11-02T01:00:58.974Z,9.72
2022-11-02T01:01:09.630Z,9.71
2022-11-02T01:01:20.137Z,9.72
2022-11-02T01:01:30.661Z,9.72
2022-11-02T01:01:41.156Z,9.75
2022-11-02T01:01:51.580Z,9.74
2022-11-02T01:02:02.146Z,9.76
2022-11-02T01:02:12.605Z,9.76
2022-11-02T01:02:23.184Z,9.79
2022-11-02T01:02:33.716Z,9.78
2022-11-02T01:02:44.177Z,9.78
2022-11-02T01:02:54.516Z,9.79
2022-11-02T01:03:05.031Z,9.79
2022-11-02T01:03:15.541Z,9.78
2022-11-02T01:03:26.046Z,9.81
2022-11-02T01:03:36.561Z,9.81
2022-11-02T01:03:47.070Z,9.79
2022-11-02T01:03:57.581Z,9.79
2022-11-02T01:04:08.070Z,9.79
2022-11-02T01:04:18.581Z,9.79
2022-11-02T01:04:29.083Z,9.79
2022-11-02T01:04:39.592Z,9.76
2022-11-02T01:04:50.099Z,9.78
2022-11-02T01:05:00.606Z,9.76
2022-11-02T01:05:11.123Z,9.75
2022-11-02T01:05:21.628Z,9.74
2022-11-02T01:05:32.126Z,9.75
2022-11-02T01:05:42.642Z,9.75
2022-11-02T01:05:53.148Z,9.75
2022-11-02T01:06:03.652Z,9.75
2022-11-02T01:06:14.163Z,9.76
2022-11-02T01:06:24.663Z,9.74
2022-11-02T01:06:35.170Z,9.75
2022-11-02T01:06:45.681Z,9.75
2022-11-02T01:06:56.191Z,9.75
2022-11-02T01:07:06.705Z,9.76
2022-11-02T01:07:17.206Z,9.75
2022-11-02T01:07:27.720Z,9.76
2022-11-02T01:07:38.239Z,9.76
2022-11-02T01:07:48.720Z,9.75
2022-11-02T01:07:59.247Z,9.75
2022-11-02T01:08:09.741Z,9.76
2022-11-02T01:08:20.254Z,9.76
2022-11-02T01:08:30.761Z,9.74
2022-11-02T01:08:41.263Z,9.76
2022-11-02T01:08:51.785Z,9.75
2022-11-02T01:09:02.281Z,9.75
2022-11-02T01:09:12.791Z,9.75
2022-11-02T01:09:23.291Z,9.75
2022-11-02T01:09:33.806Z,9.75
2022-11-02T01:09:44.317Z,9.75
2022-11-02T01:09:54.820Z,9.76
2022-11-02T01:10:05.327Z,9.75
2022-11-02T01:10:15.835Z,9.75
2022-11-02T01:10:26.339Z,9.76
2022-11-02T01:10:36.856Z,9.76
2022-11-02T01:10:48.505Z,9.75
2022-11-02T01:10:57.862Z,9.74
2022-11-02T01:11:08.378Z,9.74
2022-11-02T01:11:18.880Z,9.72
2022-11-02T01:11:29.400Z,9.72
2022-11-02T01:11:39.892Z,9.71
2022-11-02T01:11:50.396Z,9.71
2022-11-02T01:12:00.910Z,9.71
2022-11-02T01:12:11.423Z,9.71
2022-11-02T01:12:21.923Z,9.68
2022-11-02T01:12:32.460Z,9.69
2022-11-02T01:12:42.937Z,9.66
2022-11-02T01:12:53.462Z,9.66
2022-11-02T01:13:03.952Z,9.66
2022-11-02T01:13:14.464Z,9.65
2022-11-02T01:13:24.971Z,9.64
2022-11-02T01:13:35.480Z,9.61
2022-11-02T01:13:45.991Z,9.60
2022-11-02T01:13:56.510Z,9.58
2022-11-02T01:14:07.009Z,9.58
2022-11-02T01:14:17.513Z,9.60
2022-11-02T01:14:28.029Z,9.58
2022-11-02T01:14:38.536Z,9.57
2022-11-02T01:14:49.045Z,9.56
2022-11-02T01:14:59.553Z,9.56
2022-11-02T01:15:10.069Z,9.56
2022-11-02T01:15:20.571Z,9.54
2022-11-02T01:15:31.086Z,9.54
2022-11-02T01:15:41.589Z,9.50
2022-11-02T01:15:52.095Z,9.51
2022-11-02T01:16:02.607Z,9.51
2022-11-02T01:16:13.109Z,9.50
2022-11-02T01:16:23.654Z,9.51
2022-11-02T01:16:34.154Z,9.50
2022-11-02T01:16:55.146Z,9.51
2022-11-02T01:17:05.653Z,9.50
2022-11-02T01:17:16.151Z,9.51
2022-11-02T01:17:26.663Z,9.53
2022-11-02T01:17:37.161Z,9.51
2022-11-02T01:17:47.678Z,9.51
2022-11-02T01:17:58.183Z,9.53
2022-11-02T01:18:08.704Z,9.51
2022-11-02T01:18:19.185Z,9.51
2022-11-02T01:18:29.716Z,9.51
2022-11-02T01:18:40.453Z,9.51
2022-11-02T01:18:50.738Z,9.53
2022-11-02T01:19:01.217Z,9.54
2022-11-02T01:19:11.737Z,9.53
2022-11-02T01:19:22.230Z,9.53
2022-11-02T01:19:32.739Z,9.53
2022-11-02T01:19:43.246Z,9.51
2022-11-02T01:19:53.770Z,9.51
2022-11-02T01:20:04.261Z,9.51
2022-11-02T01:20:14.774Z,9.51
2022-11-02T01:20:25.275Z,9.48
2022-11-02T01:20:35.783Z,9.51
2022-11-02T01:20:46.295Z,9.50
2022-11-02T01:20:56.808Z,9.51
2022-11-02T01:21:07.305Z,9.50
2022-11-02T01:21:17.819Z,9.50
2022-11-02T01:21:28.330Z,9.50
2022-11-02T01:21:38.830Z,9.50
2022-11-02T01:21:49.339Z,9.50
2022-11-02T01:21:59.851Z,9.50
2022-11-02T01:22:10.363Z,9.50
2022-11-02T01:22:20.898Z,9.50
2022-11-02T01:22:31.374Z,9.51
2022-11-02T01:22:41.889Z,9.51
2022-11-02T01:22:52.396Z,9.53
2022-11-02T01:23:02.913Z,9.53
2022-11-02T01:23:13.412Z,9.53
2022-11-02T01:23:23.920Z,9.51
2022-11-02T01:23:34.433Z,9.50
2022-11-02T01:23:44.952Z,9.51
2022-11-02T01:23:55.480Z,9.51
2022-11-02T01:24:05.961Z,9.50
2022-11-02T01:24:16.453Z,9.48
2022-11-02T01:24:26.960Z,9.50
2022-11-02T01:24:37.468Z,9.48
2022-11-02T01:24:47.975Z,9.50
2022-11-02T01:24:58.489Z,9.48
2022-11-02T01:25:08.998Z,9.47
2022-11-02T01:25:19.505Z,9.46
2022-11-02T01:25:30.023Z,9.48
2022-11-02T01:25:40.530Z,9.46
2022-11-02T01:25:51.033Z,9.43
2022-11-02T01:26:01.542Z,9.46
2022-11-02T01:26:12.061Z,9.46
2022-11-02T01:26:22.556Z,9.46
2022-11-02T01:26:33.082Z,9.48
2022-11-02T01:26:43.569Z,9.48
2022-11-02T01:26:54.077Z,9.48
2022-11-02T01:27:04.586Z,9.50
2022-11-02T01:27:15.096Z,9.51
2022-11-02T01:27:25.609Z,9.53
2022-11-02T01:27:36.115Z,9.56
2022-11-02T01:27:46.626Z,9.54
2022-11-02T01:27:57.128Z,9.56
2022-11-02T01:28:07.651Z,9.57
2022-11-02T01:28:18.147Z,9.57
2022-11-02T01:28:28.655Z,9.58
2022-11-02T01:28:39.162Z,9.61
2022-11-02T01:28:49.712Z,9.61
2022-11-02T01:29:00.178Z,9.64
2022-11-02T01:29:10.684Z,9.64
2022-11-02T01:29:21.199Z,9.64
2022-11-02T01:29:31.716Z,9.61
2022-11-02T01:29:42.213Z,9.64
2022-11-02T01:29:52.721Z,9.64
2022-11-02T01:30:03.222Z,9.64
2022-11-02T01:30:13.733Z,9.60
2022-11-02T01:30:24.259Z,9.60
2022-11-02T01:30:34.745Z,9.60
2022-11-02T01:30:45.257Z,9.58
2022-11-02T01:30:55.772Z,9.58
2022-11-02T01:31:06.281Z,9.58
2022-11-02T01:31:16.778Z,9.57
2022-11-02T01:31:27.294Z,9.57
2022-11-02T01:31:37.791Z,9.60
2022-11-02T01:31:48.309Z,9.58
2022-11-02T01:31:58.817Z,9.60
2022-11-02T01:32:09.326Z,9.61
2022-11-02T01:32:19.839Z,9.65
2022-11-02T01:32:30.356Z,9.64
2022-11-02T01:32:40.843Z,9.68
2022-11-02T01:32:51.354Z,9.68
2022-11-02T01:33:01.859Z,9.68
2022-11-02T01:33:12.380Z,9.69
2022-11-02T01:33:22.875Z,9.69
2022-11-02T01:33:33.387Z,9.69
2022-11-02T01:33:43.898Z,9.69
2022-11-02T01:33:54.440Z,9.69
2022-11-02T01:34:04.925Z,9.69
2022-11-02T01:34:15.446Z,9.69
2022-11-02T01:34:25.931Z,9.69
2022-11-02T01:34:36.446Z,9.71
2022-11-02T01:34:46.944Z,9.68
2022-11-02T01:34:57.469Z,9.68
2022-11-02T01:35:07.958Z,9.68
2022-11-02T01:35:18.461Z,9.69
2022-11-02T01:35:28.974Z,9.71
2022-11-02T01:35:39.489Z,9.69
2022-11-02T01:35:49.991Z,9.66
2022-11-02T01:36:00.504Z,9.69
2022-11-02T01:36:11.133Z,9.66
2022-11-02T01:36:32.034Z,9.66
2022-11-02T01:36:42.538Z,9.66
2022-11-02T01:36:53.048Z,9.71
2022-11-02T01:37:03.566Z,9.72
2022-11-02T01:37:14.060Z,9.71
2022-11-02T01:37:24.574Z,9.71
2022-11-02T01:37:35.074Z,9.72
2022-11-02T01:37:45.580Z,9.71
2022-11-02T01:37:56.095Z,9.71
2022-11-02T01:38:06.905Z,9.72
2022-11-02T01:38:17.129Z,9.72
2022-11-02T01:38:27.623Z,9.74
2022-11-02T01:38:38.127Z,9.74
2022-11-02T01:38:48.633Z,9.78
2022-11-02T01:38:59.147Z,9.76
2022-11-02T01:39:09.650Z,9.79
2022-11-02T01:39:20.157Z,9.78
2022-11-02T01:39:30.688Z,9.81
2022-11-02T01:39:41.185Z,9.81
2022-11-02T01:39:51.695Z,9.81
2022-11-02T01:40:02.213Z,9.83
2022-11-02T01:40:12.715Z,9.83
2022-11-02T01:40:23.215Z,9.81
2022-11-02T01:40:33.720Z,9.81
2022-11-02T01:40:44.239Z,9.83
2022-11-02T01:40:54.739Z,9.83
2022-11-02T01:41:05.246Z,9.83
2022-11-02T01:41:15.783Z,9.83
2022-11-02T01:41:26.262Z,9.84
2022-11-02T01:41:36.786Z,9.87
2022-11-02T01:41:47.276Z,9.89
2022-11-02T01:41:57.786Z,9.87
2022-11-02T01:42:08.292Z,9.90
2022-11-02T01:42:18.799Z,9.90
2022-11-02T01:42:29.304Z,9.87
2022-11-02T01:42:39.811Z,9.89
2022-11-02T01:42:50.324Z,9.90
2022-11-02T01:43:00.831Z,9.90
2022-11-02T01:43:11.337Z,9.91
2022-11-02T01:43:21.844Z,9.90
2022-11-02T01:43:32.351Z,9.91
2022-11-02T01:43:42.850Z,9.90
2022-11-02T01:43:53.368Z,9.91
2022-11-02T01:44:03.899Z,9.90
2022-11-02T01:44:14.373Z,9.91
2022-11-02T01:44:24.888Z,9.93
2022-11-02T01:44:35.397Z,9.94
2022-11-02T01:44:45.905Z,9.93
2022-11-02T01:44:56.410Z,9.91
2022-11-02T01:45:06.914Z,9.93
2022-11-02T01:45:17.428Z,9.97
2022-11-02T01:45:27.935Z,9.94
2022-11-02T01:45:38.442Z,9.94
2022-11-02T01:45:48.962Z,9.96
2022-11-02T01:45:59.463Z,9.93
2022-11-02T01:46:09.976Z,9.94
2022-11-02T01:46:20.478Z,9.94
2022-11-02T01:46:30.991Z,9.94
2022-11-02T01:46:41.530Z,9.91
2022-11-02T01:46:51.993Z,9.93
2022-11-02T01:47:02.516Z,9.90
2022-11-02T01:47:13.019Z,9.90
2022-11-02T01:47:23.523Z,9.91
2022-11-02T01:47:34.029Z,9.89
2022-11-02T01:47:44.533Z,9.89
2022-11-02T01:47:55.040Z,9.87
2022-11-02T01:48:05.863Z,9.87
2022-11-02T01:48:16.058Z,9.87
2022-11-02T01:48:26.561Z,9.86
2022-11-02T01:48:37.076Z,9.87
2022-11-02T01:48:47.573Z,9.86
2022-11-02T01:48:58.084Z,9.86
2022-11-02T01:49:08.596Z,9.86
2022-11-02T01:49:19.101Z,9.89
2022-11-02T01:49:29.602Z,9.87
2022-11-02T01:49:40.130Z,9.86
2022-11-02T01:49:50.620Z,9.87
2022-11-02T01:50:01.144Z,9.89
2022-11-02T01:50:11.633Z,9.87
2022-11-02T01:50:22.160Z,9.87
2022-11-02T01:50:32.654Z,9.87
2022-11-02T01:50:43.179Z,9.89
2022-11-02T01:50:53.674Z,9.87
2022-11-02T01:51:04.216Z,9.87
2022-11-02T01:51:14.697Z,9.86
2022-11-02T01:51:25.204Z,9.86
2022-11-02T01:51:35.725Z,9.84
2022-11-02T01:51:46.252Z,9.84
2022-11-02T01:51:56.730Z,9.84
2022-11-02T01:52:07.245Z,9.84
2022-11-02T01:52:17.748Z,9.86
2022-11-02T01:52:28.275Z,9.86
2022-11-02T01:52:38.800Z,9.90
2022-11-02T01:52:49.276Z,9.90
2022-11-02T01:52:59.784Z,9.91
2022-11-02T01:53:10.292Z,9.90
2022-11-02T01:53:20.819Z,9.91
2022-11-02T01:53:31.313Z,9.91
2022-11-02T01:53:41.813Z,9.93
2022-11-02T01:53:52.323Z,9.91
2022-11-02T01:54:02.828Z,9.93
2022-11-02T01:54:13.352Z,9.93
2022-11-02T01:54:23.852Z,9.93
2022-11-02T01:54:34.356Z,9.94
2022-11-02T01:54:44.855Z,9.94
2022-11-02T01:54:55.368Z,9.90
2022-11-02T01:55:05.879Z,9.91
2022-11-02T01:55:16.394Z,9.90
2022-11-02T01:55:26.930Z,9.90
2022-11-02T01:55:37.417Z,9.87
2022-11-02T01:55:47.911Z,9.87
2022-11-02T01:55:58.425Z,9.86
2022-11-02T01:56:08.980Z,9.81
2022-11-02T01:56:19.506Z,9.83
2022-11-02T01:56:29.954Z,9.81
2022-11-02T01:56:40.491Z,9.79
2022-11-02T01:56:50.963Z,9.79
2022-11-02T01:57:01.462Z,9.79
2022-11-02T01:57:11.973Z,9.78
2022-11-02T01:57:22.477Z,9.78
2022-11-02T01:57:32.981Z,9.78
2022-11-02T01:57:43.499Z,9.81
2022-11-02T01:57:54.023Z,9.78
2022-11-02T01:58:04.889Z,9.79
2022-11-02T01:58:15.022Z,9.79
2022-11-02T01:58:25.523Z,9.81
2022-11-02T01:58:36.044Z,9.83
2022-11-02T01:58:46.540Z,9.83
2022-11-02T01:58:57.041Z,9.83
2022-11-02T01:59:07.555Z,9.81
2022-11-02T01:59:18.067Z,9.81
2022-11-02T01:59:28.575Z,9.83
2022-11-02T01:59:39.078Z,9.79
2022-11-02T01:59:49.592Z,9.84
2022-11-02T02:00:00.099Z,9.81
2022-11-02T02:00:10.609Z,9.81
2022-11-02T02:00:21.109Z,9.81
2022-11-02T02:00:31.622Z,9.81
2022-11-02T02:00:42.130Z,9.81
2022-11-02T02:00:52.638Z,9.81
2022-11-02T02:01:03.141Z,9.79
2022-11-02T02:01:13.728Z,9.76
2022-11-02T02:01:24.349Z,9.78
2022-11-02T02:01:34.842Z,9.78
2022-11-02T02:01:45.281Z,9.76
2022-11-02T02:01:55.801Z,9.76
2022-11-02T02:02:06.504Z,9.76
2022-11-02T02:02:16.937Z,9.75
2022-11-02T02:02:27.441Z,9.75
2022-11-02T02:02:37.881Z,9.72
2022-11-02T02:02:48.341Z,9.72
2022-11-02T02:02:58.843Z,9.72
2022-11-02T02:03:09.273Z,9.68
2022-11-02T02:03:19.764Z,9.66
2022-11-02T02:03:30.276Z,9.66
2022-11-02T02:03:40.788Z,9.65
2022-11-02T02:03:51.295Z,9.61
2022-11-02T02:04:01.803Z,9.60
2022-11-02T02:04:12.321Z,9.60
2022-11-02T02:04:22.820Z,9.58
2022-11-02T02:04:33.330Z,9.58
2022-11-02T02:04:43.863Z,9.57
2022-11-02T02:04:54.343Z,9.56
2022-11-02T02:05:04.858Z,9.56
2022-11-02T02:05:15.358Z,9.54
2022-11-02T02:05:25.872Z,9.53
2022-11-02T02:05:36.439Z,9.56
2022-11-02T02:05:46.886Z,9.54
2022-11-02T02:05:57.397Z,9.54
2022-11-02T02:06:07.908Z,9.56
2022-11-02T02:06:18.413Z,9.56
2022-11-02T02:06:28.923Z,9.56
2022-11-02T02:06:39.431Z,9.54
2022-11-02T02:06:49.940Z,9.56
2022-11-02T02:07:00.450Z,9.56
2022-11-02T02:07:10.950Z,9.54
2022-11-02T02:07:21.472Z,9.54
2022-11-02T02:07:31.978Z,9.56
2022-11-02T02:07:42.477Z,9.53
2022-11-02T02:07:52.987Z,9.56
2022-11-02T02:08:03.707Z,9.54
2022-11-02T02:08:14.004Z,9.54
2022-11-02T02:08:24.506Z,9.53
2022-11-02T02:08:35.014Z,9.53
2022-11-02T02:08:45.519Z,9.53
2022-11-02T02:08:56.058Z,9.54
2022-11-02T02:09:06.553Z,9.53
2022-11-02T02:09:17.056Z,9.54
2022-11-02T02:09:27.557Z,9.54
2022-11-02T02:09:38.075Z,9.54
2022-11-02T02:09:51.243Z,9.56
2022-11-02T02:09:59.085Z,9.57
2022-11-02T02:10:09.598Z,9.57
2022-11-02T02:10:20.107Z,9.58
2022-11-02T02:10:30.615Z,9.61
2022-11-02T02:10:41.146Z,9.64
2022-11-02T02:10:51.630Z,9.64
2022-11-02T02:11:02.139Z,9.65
2022-11-02T02:11:12.649Z,9.65
2022-11-02T02:11:29.871Z,9.65
2022-11-02T02:11:33.666Z,9.66
2022-11-02T02:11:44.194Z,9.66
2022-11-02T02:11:54.680Z,9.66
2022-11-02T02:12:05.208Z,9.65
2022-11-02T02:12:15.703Z,9.65
2022-11-02T02:12:26.211Z,9.66
2022-11-02T02:12:36.713Z,9.64
2022-11-02T02:12:47.228Z,9.65
2022-11-02T02:12:57.734Z,9.61
2022-11-02T02:13:08.284Z,9.65
2022-11-02T02:13:18.746Z,9.65
2022-11-02T02:13:29.254Z,9.65
2022-11-02T02:13:39.784Z,9.64
2022-11-02T02:13:50.272Z,9.60
2022-11-02T02:14:00.781Z,9.58
2022-11-02T02:14:11.292Z,9.58
2022-11-02T02:14:21.795Z,9.58
2022-11-02T02:14:32.341Z,9.57
2022-11-02T02:14:42.818Z,9.56
2022-11-02T02:14:53.327Z,9.56
2022-11-02T02:15:03.847Z,9.56
2022-11-02T02:15:14.338Z,9.54
2022-11-02T02:15:24.842Z,9.53
2022-11-02T02:15:35.351Z,9.51
2022-11-02T02:15:45.871Z,9.51
2022-11-02T02:15:56.383Z,9.51
2022-11-02T02:16:06.874Z,9.51
2022-11-02T02:16:17.397Z,9.51
2022-11-02T02:16:33.325Z,9.51
2022-11-02T02:16:39.455Z,9.48
2022-11-02T02:16:59.419Z,9.48
2022-11-02T02:17:09.925Z,9.48
2022-11-02T02:17:20.437Z,9.48
2022-11-02T02:17:30.940Z,9.48
2022-11-02T02:17:41.456Z,9.48
2022-11-02T02:17:51.954Z,9.50
2022-11-02T02:18:02.770Z,9.48
2022-11-02T02:18:12.975Z,9.48
2022-11-02T02:18:23.484Z,9.48
2022-11-02T02:18:34.000Z,9.50
2022-11-02T02:18:44.500Z,9.48
2022-11-02T02:18:55.018Z,9.48
2022-11-02T02:19:05.520Z,9.50
2022-11-02T02:19:16.034Z,9.50
2022-11-02T02:19:26.543Z,9.53
2022-11-02T02:19:37.076Z,9.50
2022-11-02T02:19:47.558Z,9.50
2022-11-02T02:19:58.072Z,9.51
2022-11-02T02:20:08.582Z,9.48
2022-11-02T02:20:19.103Z,9.48
2022-11-02T02:20:29.600Z,9.48